Arminto, WY (82630)

9:29 AM MDT on September 23, 2014 (GMT -0600)
Natrona County International | Change Station
CLOSE
Current Station
Airport
Location: Casper,
Elevation: 5289 ft
Nearby Weather Stations

Elev 5289 ft 42.90 °N, 106.47 °W | Updated 36 minutes ago

Clear
Clear
63 °F
Feels Like 63 °F
N
16
Wind Variable Wind from SW

Today
High -- | Low -- °F
--% Chance of Precip.
Yesterday
High -- | Low -- °F
Precip. -- in
6:57 AM 7:04 PM
Waning Crescent, 0% visible
Pressure 29.95 in
Visibility 10.0 miles
Clouds Clear
Dew Point 41 °F
Humidity 45%
Rainfall 0.00 in
Snow Depth 0 in , 0 in , 0 in
UV 2 out of 12
Pollen 5.70 out of 12
Air Quality Not available.
Flu Activity Not available.
METAR KCPR 231453Z 23014KT 10SM CLR 17/05 A3011 RMK AO2 SLP141 T01720050 53005

More Conditions Fewer Conditions

Pressure 29.95 in
Visibility 10.0 miles
Clouds Clear
Dew Point 41 °F
Humidity 45%
Rainfall 0.00 in
Snow Depth 0 in , 0 in , 0 in
UV 2 out of 12
Pollen 5.70 out of 12
Air Quality Not available.
Flu Activity Not available.
METAR KCPR 231453Z 23014KT 10SM CLR 17/05 A3011 RMK AO2 SLP141 T01720050 53005

More Conditions Fewer Conditions

10-Day Weather Forecast

Almanac

Astronomy

Sep. 23, 2014 Rise Set
Actual Time 6:57 AM MDT 7:04 PM MDT
Civil Twilight 6:29 AM MDT 7:33 PM MDT
Nautical Twilight 5:56 AM MDT 8:06 PM MDT
Astronomical Twilight 5:22 AM MDT 8:40 PM MDT
Moon 6:24 AM MDT 6:44 PM MDT
Length of Visible Light 13h 03m
Length of Day
12h 06m
Tomorrow will be 2m 54s shorter.
Waning Crescent, 0% of the Moon is Illuminated
Today
Waning Crescent
Sep 24
New
Oct 1
First Quarter
Oct 8
Full
Oct 15
Last Quarter

Today's Extremes

State Highs State Lows

Community

WunderPhotos

Upload Photos

1,755,725 photos uploaded!

Nearby

Snow Depth

Station Depth Elevation
South Brush Creek 0 in 8440 ft
Divide Peak 0 in 8860 ft
Beartooth Lake 0 in 9275 ft
Townsend Creek 0 in 8700 ft
Whiskey Park 0 in 8950 ft

Earthquake Activity

City Distance Mag. Time & Date
No recent earthquake activity has been reported nearby.
Minimum magnitude displayed is 2.5.

Coastal Water Temperatures

Place Temperature
No Stations Reporting

Nearby Weather Stations